sensor_id;sensor_type;location;lat;lon;timestamp;P1;durP1;ratioP1;P2;durP2;ratioP2
74421;SDS011;62856;51.446;8.360;2022-10-31T00:02:02;7.53;;;2.15;;
74421;SDS011;62856;51.446;8.360;2022-10-31T00:04:28;7.28;;;1.83;;
74421;SDS011;62856;51.446;8.360;2022-10-31T00:06:53;6.67;;;1.90;;
74421;SDS011;62856;51.446;8.360;2022-10-31T00:09:19;8.20;;;1.90;;
74421;SDS011;62856;51.446;8.360;2022-10-31T00:11:44;6.60;;;1.90;;
74421;SDS011;62856;51.446;8.360;2022-10-31T00:14:09;6.07;;;1.97;;
74421;SDS011;62856;51.446;8.360;2022-10-31T00:16:34;7.13;;;1.97;;
74421;SDS011;62856;51.446;8.360;2022-10-31T00:19:01;7.50;;;1.80;;
74421;SDS011;62856;51.446;8.360;2022-10-31T00:21:27;6.28;;;1.70;;
74421;SDS011;62856;51.446;8.360;2022-10-31T00:23:54;5.97;;;1.77;;
74421;SDS011;62856;51.446;8.360;2022-10-31T00:26:20;6.35;;;1.73;;
74421;SDS011;62856;51.446;8.360;2022-10-31T00:28:45;8.25;;;1.88;;
74421;SDS011;62856;51.446;8.360;2022-10-31T00:31:11;7.07;;;1.55;;
74421;SDS011;62856;51.446;8.360;2022-10-31T00:33:37;5.25;;;1.83;;
74421;SDS011;62856;51.446;8.360;2022-10-31T00:36:05;6.75;;;1.80;;
74421;SDS011;62856;51.446;8.360;2022-10-31T00:38:32;6.13;;;1.70;;
74421;SDS011;62856;51.446;8.360;2022-10-31T00:40:57;9.27;;;2.53;;
74421;SDS011;62856;51.446;8.360;2022-10-31T00:43:23;8.35;;;1.98;;
74421;SDS011;62856;51.446;8.360;2022-10-31T00:45:48;7.13;;;2.05;;
74421;SDS011;62856;51.446;8.360;2022-10-31T00:48:13;9.93;;;2.35;;
74421;SDS011;62856;51.446;8.360;2022-10-31T00:50:39;7.40;;;1.80;;
74421;SDS011;62856;51.446;8.360;2022-10-31T00:53:05;5.05;;;1.70;;
74421;SDS011;62856;51.446;8.360;2022-10-31T00:55:30;7.43;;;2.03;;
74421;SDS011;62856;51.446;8.360;2022-10-31T00:57:56;6.87;;;1.90;;
74421;SDS011;62856;51.446;8.360;2022-10-31T01:00:21;7.75;;;1.90;;
74421;SDS011;62856;51.446;8.360;2022-10-31T01:02:46;5.75;;;1.70;;
74421;SDS011;62856;51.446;8.360;2022-10-31T01:05:12;7.57;;;1.90;;
74421;SDS011;62856;51.446;8.360;2022-10-31T01:07:38;6.78;;;2.30;;
74421;SDS011;62856;51.446;8.360;2022-10-31T01:10:05;8.38;;;2.20;;
74421;SDS011;62856;51.446;8.360;2022-10-31T01:12:37;6.90;;;1.85;;
74421;SDS011;62856;51.446;8.360;2022-10-31T01:15:08;6.07;;;1.95;;
74421;SDS011;62856;51.446;8.360;2022-10-31T01:17:34;14.75;;;2.80;;
74421;SDS011;62856;51.446;8.360;2022-10-31T01:19:59;9.32;;;2.47;;
74421;SDS011;62856;51.446;8.360;2022-10-31T01:22:25;7.90;;;2.03;;
74421;SDS011;62856;51.446;8.360;2022-10-31T01:24:51;6.93;;;1.90;;
74421;SDS011;62856;51.446;8.360;2022-10-31T01:27:16;8.70;;;1.77;;
74421;SDS011;62856;51.446;8.360;2022-10-31T01:29:41;6.73;;;1.87;;
74421;SDS011;62856;51.446;8.360;2022-10-31T01:32:06;7.93;;;2.25;;
74421;SDS011;62856;51.446;8.360;2022-10-31T01:34:32;10.10;;;1.97;;
74421;SDS011;62856;51.446;8.360;2022-10-31T01:36:57;9.97;;;2.13;;
74421;SDS011;62856;51.446;8.360;2022-10-31T01:39:22;7.77;;;1.77;;
74421;SDS011;62856;51.446;8.360;2022-10-31T01:41:49;7.17;;;2.00;;
74421;SDS011;62856;51.446;8.360;2022-10-31T01:46:45;6.23;;;1.80;;
74421;SDS011;62856;51.446;8.360;2022-10-31T01:49:20;7.47;;;2.25;;
74421;SDS011;62856;51.446;8.360;2022-10-31T01:51:50;6.88;;;1.75;;
74421;SDS011;62856;51.446;8.360;2022-10-31T01:54:21;6.05;;;1.70;;
74421;SDS011;62856;51.446;8.360;2022-10-31T01:56:50;5.38;;;1.67;;
74421;SDS011;62856;51.446;8.360;2022-10-31T01:59:18;6.50;;;2.15;;
74421;SDS011;62856;51.446;8.360;2022-10-31T02:01:46;5.97;;;2.10;;
74421;SDS011;62856;51.446;8.360;2022-10-31T02:04:12;6.93;;;1.85;;
74421;SDS011;62856;51.446;8.360;2022-10-31T02:06:49;7.32;;;2.00;;
74421;SDS011;62856;51.446;8.360;2022-10-31T02:09:20;6.85;;;1.80;;
74421;SDS011;62856;51.446;8.360;2022-10-31T02:11:48;7.85;;;1.80;;
74421;SDS011;62856;51.446;8.360;2022-10-31T02:14:16;6.57;;;2.00;;
74421;SDS011;62856;51.446;8.360;2022-10-31T02:16:42;6.53;;;1.80;;
74421;SDS011;62856;51.446;8.360;2022-10-31T02:19:07;6.33;;;1.67;;
74421;SDS011;62856;51.446;8.360;2022-10-31T02:21:52;5.45;;;1.65;;
74421;SDS011;62856;51.446;8.360;2022-10-31T02:25:30;5.82;;;1.85;;
74421;SDS011;62856;51.446;8.360;2022-10-31T02:27:56;8.00;;;2.00;;
74421;SDS011;62856;51.446;8.360;2022-10-31T02:30:27;8.15;;;2.00;;
74421;SDS011;62856;51.446;8.360;2022-10-31T02:33:38;8.43;;;2.05;;
74421;SDS011;62856;51.446;8.360;2022-10-31T02:36:04;11.00;;;2.17;;
74421;SDS011;62856;51.446;8.360;2022-10-31T02:38:44;8.10;;;1.90;;
74421;SDS011;62856;51.446;8.360;2022-10-31T02:44:09;7.60;;;2.20;;
74421;SDS011;62856;51.446;8.360;2022-10-31T02:49:36;7.28;;;2.15;;
74421;SDS011;62856;51.446;8.360;2022-10-31T02:52:22;7.60;;;1.73;;
74421;SDS011;62856;51.446;8.360;2022-10-31T02:54:49;7.20;;;1.95;;
74421;SDS011;62856;51.446;8.360;2022-10-31T02:57:15;8.23;;;1.98;;
74421;SDS011;62856;51.446;8.360;2022-10-31T02:59:49;5.78;;;1.83;;
74421;SDS011;62856;51.446;8.360;2022-10-31T03:16:48;5.20;;;1.75;;
74421;SDS011;62856;51.446;8.360;2022-10-31T03:19:21;7.43;;;2.13;;
74421;SDS011;62856;51.446;8.360;2022-10-31T03:21:55;7.13;;;2.10;;
74421;SDS011;62856;51.446;8.360;2022-10-31T03:24:26;7.38;;;1.75;;
74421;SDS011;62856;51.446;8.360;2022-10-31T03:26:56;6.10;;;1.98;;
74421;SDS011;62856;51.446;8.360;2022-10-31T03:29:25;6.15;;;2.03;;
74421;SDS011;62856;51.446;8.360;2022-10-31T03:31:55;6.70;;;2.20;;
74421;SDS011;62856;51.446;8.360;2022-10-31T03:34:25;7.00;;;2.20;;
74421;SDS011;62856;51.446;8.360;2022-10-31T03:36:53;10.88;;;2.30;;
74421;SDS011;62856;51.446;8.360;2022-10-31T03:39:21;7.03;;;2.08;;
74421;SDS011;62856;51.446;8.360;2022-10-31T03:41:49;7.80;;;2.30;;
74421;SDS011;62856;51.446;8.360;2022-10-31T03:44:20;6.72;;;2.00;;
74421;SDS011;62856;51.446;8.360;2022-10-31T03:46:48;5.32;;;1.83;;
74421;SDS011;62856;51.446;8.360;2022-10-31T03:49:14;8.27;;;2.25;;
74421;SDS011;62856;51.446;8.360;2022-10-31T03:51:51;7.28;;;1.90;;
74421;SDS011;62856;51.446;8.360;2022-10-31T03:54:36;8.13;;;2.22;;
74421;SDS011;62856;51.446;8.360;2022-10-31T04:02:34;6.97;;;2.70;;
74421;SDS011;62856;51.446;8.360;2022-10-31T04:05:04;6.18;;;2.00;;
74421;SDS011;62856;51.446;8.360;2022-10-31T04:07:33;8.43;;;2.33;;
74421;SDS011;62856;51.446;8.360;2022-10-31T04:10:02;7.03;;;1.98;;
74421;SDS011;62856;51.446;8.360;2022-10-31T04:12:30;5.75;;;2.03;;
74421;SDS011;62856;51.446;8.360;2022-10-31T04:14:57;7.78;;;1.90;;
74421;SDS011;62856;51.446;8.360;2022-10-31T04:17:24;8.65;;;2.05;;
74421;SDS011;62856;51.446;8.360;2022-10-31T04:19:54;7.45;;;2.15;;
74421;SDS011;62856;51.446;8.360;2022-10-31T04:22:20;7.07;;;1.85;;
74421;SDS011;62856;51.446;8.360;2022-10-31T04:24:45;9.40;;;2.13;;
74421;SDS011;62856;51.446;8.360;2022-10-31T04:27:10;8.27;;;2.35;;
74421;SDS011;62856;51.446;8.360;2022-10-31T04:29:36;7.80;;;2.07;;
74421;SDS011;62856;51.446;8.360;2022-10-31T04:32:01;6.37;;;2.13;;
74421;SDS011;62856;51.446;8.360;2022-10-31T04:34:26;8.60;;;2.23;;
74421;SDS011;62856;51.446;8.360;2022-10-31T04:36:51;12.33;;;3.10;;
74421;SDS011;62856;51.446;8.360;2022-10-31T04:39:17;7.80;;;2.37;;
74421;SDS011;62856;51.446;8.360;2022-10-31T04:41:42;7.73;;;2.33;;
74421;SDS011;62856;51.446;8.360;2022-10-31T04:44:07;6.37;;;1.90;;
74421;SDS011;62856;51.446;8.360;2022-10-31T04:46:32;8.23;;;2.10;;
74421;SDS011;62856;51.446;8.360;2022-10-31T04:48:58;7.03;;;2.37;;
74421;SDS011;62856;51.446;8.360;2022-10-31T04:51:23;12.37;;;2.50;;
74421;SDS011;62856;51.446;8.360;2022-10-31T04:53:48;8.43;;;2.30;;
74421;SDS011;62856;51.446;8.360;2022-10-31T04:56:13;7.10;;;2.23;;
74421;SDS011;62856;51.446;8.360;2022-10-31T04:58:39;11.23;;;2.90;;
74421;SDS011;62856;51.446;8.360;2022-10-31T05:01:04;8.70;;;2.75;;
74421;SDS011;62856;51.446;8.360;2022-10-31T05:03:30;9.47;;;3.23;;
74421;SDS011;62856;51.446;8.360;2022-10-31T05:05:55;10.75;;;2.75;;
74421;SDS011;62856;51.446;8.360;2022-10-31T05:08:20;9.43;;;2.73;;
74421;SDS011;62856;51.446;8.360;2022-10-31T05:10:45;12.10;;;3.23;;
74421;SDS011;62856;51.446;8.360;2022-10-31T05:13:11;14.40;;;4.03;;
74421;SDS011;62856;51.446;8.360;2022-10-31T05:15:36;10.52;;;3.13;;
74421;SDS011;62856;51.446;8.360;2022-10-31T05:18:01;11.13;;;3.10;;
74421;SDS011;62856;51.446;8.360;2022-10-31T05:20:28;9.20;;;3.00;;
74421;SDS011;62856;51.446;8.360;2022-10-31T05:22:55;13.73;;;2.65;;
74421;SDS011;62856;51.446;8.360;2022-10-31T05:25:22;10.82;;;3.28;;
74421;SDS011;62856;51.446;8.360;2022-10-31T05:27:49;13.23;;;3.15;;
74421;SDS011;62856;51.446;8.360;2022-10-31T05:30:23;13.07;;;3.03;;
74421;SDS011;62856;51.446;8.360;2022-10-31T05:32:50;12.90;;;3.70;;
74421;SDS011;62856;51.446;8.360;2022-10-31T05:35:17;10.73;;;3.20;;
74421;SDS011;62856;51.446;8.360;2022-10-31T05:37:44;12.68;;;2.95;;
74421;SDS011;62856;51.446;8.360;2022-10-31T05:40:10;13.88;;;3.67;;
74421;SDS011;62856;51.446;8.360;2022-10-31T05:42:37;12.77;;;3.30;;
74421;SDS011;62856;51.446;8.360;2022-10-31T05:45:03;11.38;;;3.53;;
74421;SDS011;62856;51.446;8.360;2022-10-31T05:47:29;9.18;;;3.08;;
74421;SDS011;62856;51.446;8.360;2022-10-31T05:49:54;9.10;;;2.90;;
74421;SDS011;62856;51.446;8.360;2022-10-31T05:52:20;10.80;;;3.30;;
74421;SDS011;62856;51.446;8.360;2022-10-31T05:54:45;9.80;;;2.85;;
74421;SDS011;62856;51.446;8.360;2022-10-31T05:57:10;10.43;;;3.60;;
74421;SDS011;62856;51.446;8.360;2022-10-31T05:59:35;10.98;;;3.05;;
74421;SDS011;62856;51.446;8.360;2022-10-31T06:02:01;8.00;;;3.03;;
74421;SDS011;62856;51.446;8.360;2022-10-31T06:04:26;12.53;;;3.93;;
74421;SDS011;62856;51.446;8.360;2022-10-31T06:06:51;9.80;;;3.60;;
74421;SDS011;62856;51.446;8.360;2022-10-31T06:09:17;11.65;;;3.30;;
74421;SDS011;62856;51.446;8.360;2022-10-31T06:11:42;13.37;;;3.63;;
74421;SDS011;62856;51.446;8.360;2022-10-31T06:14:07;11.57;;;3.55;;
74421;SDS011;62856;51.446;8.360;2022-10-31T06:16:32;11.40;;;3.30;;
74421;SDS011;62856;51.446;8.360;2022-10-31T06:18:58;14.65;;;4.53;;
74421;SDS011;62856;51.446;8.360;2022-10-31T06:21:23;12.30;;;3.83;;
74421;SDS011;62856;51.446;8.360;2022-10-31T06:23:49;12.88;;;3.90;;
74421;SDS011;62856;51.446;8.360;2022-10-31T06:26:14;12.30;;;4.00;;
74421;SDS011;62856;51.446;8.360;2022-10-31T06:28:39;11.10;;;3.37;;
74421;SDS011;62856;51.446;8.360;2022-10-31T06:31:05;11.38;;;3.47;;
74421;SDS011;62856;51.446;8.360;2022-10-31T06:33:30;11.90;;;3.50;;
74421;SDS011;62856;51.446;8.360;2022-10-31T06:35:55;10.10;;;3.20;;
74421;SDS011;62856;51.446;8.360;2022-10-31T06:38:21;11.15;;;4.15;;
74421;SDS011;62856;51.446;8.360;2022-10-31T06:40:46;12.55;;;4.10;;
74421;SDS011;62856;51.446;8.360;2022-10-31T06:43:11;14.57;;;4.47;;
74421;SDS011;62856;51.446;8.360;2022-10-31T06:45:37;14.73;;;5.22;;
74421;SDS011;62856;51.446;8.360;2022-10-31T06:48:02;18.80;;;4.80;;
74421;SDS011;62856;51.446;8.360;2022-10-31T06:50:28;12.95;;;3.67;;
74421;SDS011;62856;51.446;8.360;2022-10-31T06:52:55;11.98;;;4.15;;
74421;SDS011;62856;51.446;8.360;2022-10-31T06:55:22;15.27;;;3.92;;
74421;SDS011;62856;51.446;8.360;2022-10-31T06:57:58;13.52;;;3.40;;
74421;SDS011;62856;51.446;8.360;2022-10-31T07:00:25;12.73;;;4.30;;
74421;SDS011;62856;51.446;8.360;2022-10-31T07:02:53;15.32;;;4.55;;
74421;SDS011;62856;51.446;8.360;2022-10-31T07:05:19;11.27;;;3.85;;
74421;SDS011;62856;51.446;8.360;2022-10-31T07:07:44;14.18;;;4.72;;
74421;SDS011;62856;51.446;8.360;2022-10-31T07:10:10;18.70;;;4.17;;
74421;SDS011;62856;51.446;8.360;2022-10-31T07:12:35;13.43;;;3.90;;
74421;SDS011;62856;51.446;8.360;2022-10-31T07:15:00;13.90;;;3.73;;
74421;SDS011;62856;51.446;8.360;2022-10-31T07:17:25;11.67;;;3.70;;
74421;SDS011;62856;51.446;8.360;2022-10-31T07:19:51;12.33;;;3.93;;
74421;SDS011;62856;51.446;8.360;2022-10-31T07:22:16;11.00;;;3.23;;
74421;SDS011;62856;51.446;8.360;2022-10-31T07:24:41;12.37;;;3.70;;
74421;SDS011;62856;51.446;8.360;2022-10-31T07:27:06;13.77;;;3.90;;
74421;SDS011;62856;51.446;8.360;2022-10-31T07:29:31;15.80;;;3.90;;
74421;SDS011;62856;51.446;8.360;2022-10-31T07:31:57;13.17;;;4.10;;
74421;SDS011;62856;51.446;8.360;2022-10-31T07:34:22;10.47;;;3.67;;
74421;SDS011;62856;51.446;8.360;2022-10-31T07:36:47;10.90;;;3.42;;
74421;SDS011;62856;51.446;8.360;2022-10-31T07:39:15;11.65;;;3.88;;
74421;SDS011;62856;51.446;8.360;2022-10-31T07:41:40;11.33;;;3.67;;
74421;SDS011;62856;51.446;8.360;2022-10-31T07:44:05;16.17;;;4.03;;
74421;SDS011;62856;51.446;8.360;2022-10-31T07:46:31;10.82;;;4.03;;
74421;SDS011;62856;51.446;8.360;2022-10-31T07:48:56;15.38;;;4.32;;
74421;SDS011;62856;51.446;8.360;2022-10-31T07:51:21;14.57;;;4.80;;
74421;SDS011;62856;51.446;8.360;2022-10-31T07:53:48;11.95;;;4.68;;
74421;SDS011;62856;51.446;8.360;2022-10-31T07:56:13;12.03;;;4.20;;
74421;SDS011;62856;51.446;8.360;2022-10-31T07:58:38;11.60;;;4.03;;
74421;SDS011;62856;51.446;8.360;2022-10-31T08:01:04;13.33;;;4.50;;
74421;SDS011;62856;51.446;8.360;2022-10-31T08:03:29;14.25;;;4.43;;
74421;SDS011;62856;51.446;8.360;2022-10-31T08:05:55;13.60;;;4.40;;
74421;SDS011;62856;51.446;8.360;2022-10-31T08:08:21;12.70;;;4.43;;
74421;SDS011;62856;51.446;8.360;2022-10-31T08:10:46;12.67;;;4.70;;
74421;SDS011;62856;51.446;8.360;2022-10-31T08:13:12;15.13;;;5.33;;
74421;SDS011;62856;51.446;8.360;2022-10-31T08:15:38;17.65;;;5.45;;
74421;SDS011;62856;51.446;8.360;2022-10-31T08:18:06;12.55;;;4.53;;
74421;SDS011;62856;51.446;8.360;2022-10-31T08:20:35;13.77;;;5.13;;
74421;SDS011;62856;51.446;8.360;2022-10-31T08:23:01;15.43;;;4.93;;
74421;SDS011;62856;51.446;8.360;2022-10-31T08:25:29;15.00;;;5.43;;
74421;SDS011;62856;51.446;8.360;2022-10-31T08:27:56;15.10;;;5.95;;
74421;SDS011;62856;51.446;8.360;2022-10-31T08:30:22;19.67;;;6.10;;
74421;SDS011;62856;51.446;8.360;2022-10-31T08:33:06;14.43;;;5.22;;
74421;SDS011;62856;51.446;8.360;2022-10-31T08:35:34;14.07;;;5.10;;
74421;SDS011;62856;51.446;8.360;2022-10-31T08:38:00;13.18;;;5.80;;
74421;SDS011;62856;51.446;8.360;2022-10-31T08:40:27;18.75;;;7.13;;
74421;SDS011;62856;51.446;8.360;2022-10-31T08:43:03;19.38;;;7.00;;
74421;SDS011;62856;51.446;8.360;2022-10-31T08:45:30;15.98;;;5.70;;
74421;SDS011;62856;51.446;8.360;2022-10-31T08:48:01;13.40;;;5.80;;
74421;SDS011;62856;51.446;8.360;2022-10-31T08:50:29;21.50;;;7.15;;
74421;SDS011;62856;51.446;8.360;2022-10-31T08:53:12;21.70;;;7.63;;
74421;SDS011;62856;51.446;8.360;2022-10-31T08:55:42;20.73;;;6.82;;
74421;SDS011;62856;51.446;8.360;2022-10-31T08:58:26;15.57;;;6.63;;
74421;SDS011;62856;51.446;8.360;2022-10-31T09:00:52;17.88;;;6.72;;
74421;SDS011;62856;51.446;8.360;2022-10-31T09:03:22;20.80;;;8.57;;
74421;SDS011;62856;51.446;8.360;2022-10-31T09:05:49;19.38;;;7.85;;
74421;SDS011;62856;51.446;8.360;2022-10-31T09:08:16;23.05;;;8.07;;
74421;SDS011;62856;51.446;8.360;2022-10-31T09:10:41;17.75;;;6.75;;
74421;SDS011;62856;51.446;8.360;2022-10-31T09:13:20;18.48;;;7.10;;
74421;SDS011;62856;51.446;8.360;2022-10-31T09:15:46;20.30;;;8.30;;
74421;SDS011;62856;51.446;8.360;2022-10-31T09:18:14;25.92;;;9.02;;
74421;SDS011;62856;51.446;8.360;2022-10-31T09:20:42;19.65;;;7.10;;
74421;SDS011;62856;51.446;8.360;2022-10-31T09:23:10;20.05;;;7.57;;
74421;SDS011;62856;51.446;8.360;2022-10-31T09:25:39;19.80;;;7.82;;
74421;SDS011;62856;51.446;8.360;2022-10-31T09:28:05;16.02;;;6.10;;
74421;SDS011;62856;51.446;8.360;2022-10-31T09:30:32;19.13;;;7.53;;
74421;SDS011;62856;51.446;8.360;2022-10-31T09:33:00;23.17;;;7.28;;
74421;SDS011;62856;51.446;8.360;2022-10-31T09:35:27;18.75;;;6.93;;
74421;SDS011;62856;51.446;8.360;2022-10-31T09:37:53;20.58;;;7.30;;
74421;SDS011;62856;51.446;8.360;2022-10-31T09:40:24;16.88;;;6.25;;
74421;SDS011;62856;51.446;8.360;2022-10-31T09:56:22;17.42;;;5.63;;
74421;SDS011;62856;51.446;8.360;2022-10-31T09:58:56;16.15;;;6.53;;
74421;SDS011;62856;51.446;8.360;2022-10-31T10:07:08;18.10;;;5.88;;
74421;SDS011;62856;51.446;8.360;2022-10-31T10:09:41;18.13;;;5.50;;
74421;SDS011;62856;51.446;8.360;2022-10-31T10:15:28;16.52;;;5.38;;
74421;SDS011;62856;51.446;8.360;2022-10-31T10:23:42;18.38;;;5.60;;
74421;SDS011;62856;51.446;8.360;2022-10-31T10:26:48;15.98;;;6.32;;
74421;SDS011;62856;51.446;8.360;2022-10-31T10:29:47;15.93;;;5.82;;
74421;SDS011;62856;51.446;8.360;2022-10-31T10:32:20;12.93;;;5.93;;
74421;SDS011;62856;51.446;8.360;2022-10-31T10:34:50;16.60;;;5.93;;
74421;SDS011;62856;51.446;8.360;2022-10-31T10:37:24;15.93;;;5.50;;
74421;SDS011;62856;51.446;8.360;2022-10-31T10:40:08;14.95;;;5.82;;
74421;SDS011;62856;51.446;8.360;2022-10-31T10:42:41;16.83;;;5.55;;
74421;SDS011;62856;51.446;8.360;2022-10-31T10:45:28;14.60;;;5.22;;
74421;SDS011;62856;51.446;8.360;2022-10-31T10:48:16;15.57;;;5.38;;
74421;SDS011;62856;51.446;8.360;2022-10-31T10:50:54;15.35;;;5.28;;
74421;SDS011;62856;51.446;8.360;2022-10-31T10:53:39;18.13;;;5.53;;
74421;SDS011;62856;51.446;8.360;2022-10-31T10:59:16;15.20;;;5.70;;
74421;SDS011;62856;51.446;8.360;2022-10-31T11:01:44;15.65;;;5.80;;
74421;SDS011;62856;51.446;8.360;2022-10-31T11:04:30;16.83;;;5.93;;
74421;SDS011;62856;51.446;8.360;2022-10-31T11:07:04;15.38;;;5.03;;
74421;SDS011;62856;51.446;8.360;2022-10-31T11:09:32;13.50;;;4.97;;
74421;SDS011;62856;51.446;8.360;2022-10-31T11:11:58;13.38;;;4.88;;
74421;SDS011;62856;51.446;8.360;2022-10-31T11:14:30;13.15;;;4.15;;
74421;SDS011;62856;51.446;8.360;2022-10-31T11:20:03;16.35;;;5.70;;
74421;SDS011;62856;51.446;8.360;2022-10-31T11:22:31;17.48;;;5.22;;
74421;SDS011;62856;51.446;8.360;2022-10-31T11:24:56;16.27;;;5.05;;
74421;SDS011;62856;51.446;8.360;2022-10-31T11:27:23;12.60;;;4.70;;
74421;SDS011;62856;51.446;8.360;2022-10-31T11:29:49;12.95;;;4.53;;
74421;SDS011;62856;51.446;8.360;2022-10-31T11:32:17;13.45;;;4.13;;
74421;SDS011;62856;51.446;8.360;2022-10-31T11:34:46;11.32;;;4.80;;
74421;SDS011;62856;51.446;8.360;2022-10-31T11:37:17;13.13;;;4.25;;
74421;SDS011;62856;51.446;8.360;2022-10-31T11:39:55;14.07;;;4.72;;
74421;SDS011;62856;51.446;8.360;2022-10-31T11:42:27;12.18;;;4.43;;
74421;SDS011;62856;51.446;8.360;2022-10-31T11:44:55;12.82;;;4.60;;
74421;SDS011;62856;51.446;8.360;2022-10-31T11:47:24;10.48;;;3.90;;
74421;SDS011;62856;51.446;8.360;2022-10-31T11:49:53;13.32;;;3.83;;
74421;SDS011;62856;51.446;8.360;2022-10-31T11:52:20;12.27;;;4.25;;
74421;SDS011;62856;51.446;8.360;2022-10-31T11:57:48;12.40;;;4.93;;
74421;SDS011;62856;51.446;8.360;2022-10-31T12:03:03;9.38;;;4.03;;
74421;SDS011;62856;51.446;8.360;2022-10-31T12:05:47;10.93;;;3.88;;
74421;SDS011;62856;51.446;8.360;2022-10-31T12:08:18;15.75;;;4.20;;
74421;SDS011;62856;51.446;8.360;2022-10-31T12:10:56;11.32;;;4.28;;
74421;SDS011;62856;51.446;8.360;2022-10-31T12:13:36;11.07;;;3.85;;
74421;SDS011;62856;51.446;8.360;2022-10-31T12:16:17;9.75;;;4.13;;
74421;SDS011;62856;51.446;8.360;2022-10-31T12:18:50;12.23;;;3.50;;
74421;SDS011;62856;51.446;8.360;2022-10-31T12:21:35;10.15;;;3.75;;
74421;SDS011;62856;51.446;8.360;2022-10-31T12:24:22;11.57;;;3.70;;
74421;SDS011;62856;51.446;8.360;2022-10-31T12:27:03;10.70;;;3.75;;
74421;SDS011;62856;51.446;8.360;2022-10-31T12:38:16;9.45;;;2.95;;
74421;SDS011;62856;51.446;8.360;2022-10-31T12:44:25;11.85;;;3.30;;
74421;SDS011;62856;51.446;8.360;2022-10-31T12:58:26;12.23;;;2.88;;
74421;SDS011;62856;51.446;8.360;2022-10-31T13:01:02;9.07;;;2.70;;
74421;SDS011;62856;51.446;8.360;2022-10-31T13:06:14;10.18;;;3.10;;
74421;SDS011;62856;51.446;8.360;2022-10-31T13:08:52;9.75;;;3.00;;
74421;SDS011;62856;51.446;8.360;2022-10-31T13:11:21;10.93;;;2.90;;
74421;SDS011;62856;51.446;8.360;2022-10-31T13:13:56;11.82;;;3.05;;
74421;SDS011;62856;51.446;8.360;2022-10-31T13:16:24;10.68;;;3.50;;
74421;SDS011;62856;51.446;8.360;2022-10-31T13:22:05;10.80;;;3.20;;
74421;SDS011;62856;51.446;8.360;2022-10-31T13:27:11;9.20;;;2.95;;
74421;SDS011;62856;51.446;8.360;2022-10-31T13:29:44;9.60;;;2.85;;
74421;SDS011;62856;51.446;8.360;2022-10-31T13:32:23;12.85;;;3.40;;
74421;SDS011;62856;51.446;8.360;2022-10-31T13:34:52;10.77;;;3.47;;
74421;SDS011;62856;51.446;8.360;2022-10-31T13:46:21;10.85;;;3.28;;
74421;SDS011;62856;51.446;8.360;2022-10-31T13:48:49;11.93;;;2.78;;
74421;SDS011;62856;51.446;8.360;2022-10-31T13:51:23;10.20;;;3.10;;
74421;SDS011;62856;51.446;8.360;2022-10-31T13:56:22;8.50;;;3.23;;
74421;SDS011;62856;51.446;8.360;2022-10-31T14:01:34;12.85;;;4.05;;
74421;SDS011;62856;51.446;8.360;2022-10-31T14:04:12;9.30;;;3.00;;
74421;SDS011;62856;51.446;8.360;2022-10-31T14:06:42;10.18;;;3.72;;
74421;SDS011;62856;51.446;8.360;2022-10-31T14:09:56;9.13;;;3.10;;
74421;SDS011;62856;51.446;8.360;2022-10-31T14:15:02;7.97;;;2.83;;
74421;SDS011;62856;51.446;8.360;2022-10-31T14:17:56;9.98;;;3.50;;
74421;SDS011;62856;51.446;8.360;2022-10-31T14:20:43;9.70;;;3.10;;
74421;SDS011;62856;51.446;8.360;2022-10-31T14:26:58;7.22;;;2.95;;
74421;SDS011;62856;51.446;8.360;2022-10-31T14:39:38;9.00;;;3.30;;
74421;SDS011;62856;51.446;8.360;2022-10-31T14:44:58;11.15;;;2.60;;
74421;SDS011;62856;51.446;8.360;2022-10-31T14:52:56;8.43;;;3.08;;
74421;SDS011;62856;51.446;8.360;2022-10-31T14:55:25;10.85;;;2.95;;
74421;SDS011;62856;51.446;8.360;2022-10-31T14:57:52;10.68;;;2.75;;
74421;SDS011;62856;51.446;8.360;2022-10-31T15:00:21;13.90;;;3.42;;
74421;SDS011;62856;51.446;8.360;2022-10-31T15:03:00;10.43;;;2.80;;
74421;SDS011;62856;51.446;8.360;2022-10-31T15:05:35;9.88;;;3.00;;
74421;SDS011;62856;51.446;8.360;2022-10-31T15:08:14;9.13;;;2.85;;
74421;SDS011;62856;51.446;8.360;2022-10-31T15:11:15;9.40;;;2.70;;
74421;SDS011;62856;51.446;8.360;2022-10-31T15:13:49;12.02;;;2.80;;
74421;SDS011;62856;51.446;8.360;2022-10-31T15:16:18;10.80;;;2.75;;
74421;SDS011;62856;51.446;8.360;2022-10-31T15:18:47;8.70;;;2.80;;
74421;SDS011;62856;51.446;8.360;2022-10-31T15:21:16;12.38;;;3.47;;
74421;SDS011;62856;51.446;8.360;2022-10-31T15:23:45;9.88;;;2.88;;
74421;SDS011;62856;51.446;8.360;2022-10-31T15:26:14;8.38;;;3.10;;
74421;SDS011;62856;51.446;8.360;2022-10-31T15:28:42;8.48;;;2.70;;
74421;SDS011;62856;51.446;8.360;2022-10-31T15:31:17;10.63;;;3.22;;
74421;SDS011;62856;51.446;8.360;2022-10-31T15:33:44;8.00;;;2.63;;
74421;SDS011;62856;51.446;8.360;2022-10-31T15:36:31;9.52;;;2.65;;
74421;SDS011;62856;51.446;8.360;2022-10-31T15:38:57;7.93;;;2.47;;
74421;SDS011;62856;51.446;8.360;2022-10-31T15:41:33;11.20;;;2.67;;
74421;SDS011;62856;51.446;8.360;2022-10-31T15:44:04;11.52;;;2.70;;
74421;SDS011;62856;51.446;8.360;2022-10-31T15:46:39;9.65;;;2.75;;
74421;SDS011;62856;51.446;8.360;2022-10-31T15:49:10;13.88;;;2.58;;
74421;SDS011;62856;51.446;8.360;2022-10-31T15:51:45;11.13;;;2.90;;
74421;SDS011;62856;51.446;8.360;2022-10-31T15:54:11;8.70;;;2.53;;
74421;SDS011;62856;51.446;8.360;2022-10-31T15:56:38;11.60;;;2.40;;
74421;SDS011;62856;51.446;8.360;2022-10-31T15:59:04;14.17;;;2.57;;
74421;SDS011;62856;51.446;8.360;2022-10-31T16:01:30;6.93;;;2.20;;
74421;SDS011;62856;51.446;8.360;2022-10-31T16:06:32;8.82;;;2.40;;
74421;SDS011;62856;51.446;8.360;2022-10-31T16:08:59;9.10;;;2.65;;
74421;SDS011;62856;51.446;8.360;2022-10-31T16:16:48;12.50;;;2.67;;
74421;SDS011;62856;51.446;8.360;2022-10-31T16:19:21;7.93;;;2.10;;
74421;SDS011;62856;51.446;8.360;2022-10-31T16:21:54;7.78;;;2.00;;
74421;SDS011;62856;51.446;8.360;2022-10-31T16:27:22;8.70;;;2.30;;
74421;SDS011;62856;51.446;8.360;2022-10-31T16:29:54;8.80;;;2.05;;
74421;SDS011;62856;51.446;8.360;2022-10-31T16:37:27;7.13;;;1.95;;
74421;SDS011;62856;51.446;8.360;2022-10-31T16:39:52;7.20;;;2.17;;
74421;SDS011;62856;51.446;8.360;2022-10-31T16:42:17;10.20;;;2.30;;
74421;SDS011;62856;51.446;8.360;2022-10-31T16:44:43;7.80;;;2.00;;
74421;SDS011;62856;51.446;8.360;2022-10-31T16:47:11;7.97;;;2.33;;
74421;SDS011;62856;51.446;8.360;2022-10-31T16:49:39;8.88;;;2.22;;
74421;SDS011;62856;51.446;8.360;2022-10-31T16:52:05;11.88;;;2.50;;
74421;SDS011;62856;51.446;8.360;2022-10-31T16:54:30;6.28;;;1.90;;
74421;SDS011;62856;51.446;8.360;2022-10-31T16:56:57;8.63;;;2.13;;
74421;SDS011;62856;51.446;8.360;2022-10-31T17:01:48;6.60;;;1.92;;
74421;SDS011;62856;51.446;8.360;2022-10-31T17:04:14;7.78;;;2.00;;
74421;SDS011;62856;51.446;8.360;2022-10-31T17:06:40;8.90;;;2.95;;
74421;SDS011;62856;51.446;8.360;2022-10-31T17:09:05;7.85;;;2.35;;
74421;SDS011;62856;51.446;8.360;2022-10-31T17:11:31;8.18;;;2.20;;
74421;SDS011;62856;51.446;8.360;2022-10-31T17:13:56;5.75;;;1.73;;
74421;SDS011;62856;51.446;8.360;2022-10-31T17:16:22;8.27;;;2.10;;
74421;SDS011;62856;51.446;8.360;2022-10-31T17:18:48;8.90;;;2.15;;
74421;SDS011;62856;51.446;8.360;2022-10-31T17:21:15;8.35;;;2.08;;
74421;SDS011;62856;51.446;8.360;2022-10-31T17:23:43;8.85;;;2.15;;
74421;SDS011;62856;51.446;8.360;2022-10-31T17:26:09;8.77;;;1.95;;
74421;SDS011;62856;51.446;8.360;2022-10-31T17:28:34;8.82;;;2.13;;
74421;SDS011;62856;51.446;8.360;2022-10-31T17:31:00;9.40;;;2.15;;
74421;SDS011;62856;51.446;8.360;2022-10-31T17:33:25;9.70;;;2.15;;